Hg 306 Tobis — OUPS — position and weather

sailwx.info

Track history (hours):
 
Tides and Currents Weather Stations Pressure Air Temp Water Temp Dewpoint Dewpoint Depression Visibility Wind Speed Wind Dir Waves Ship Positions

Hg 306 Tobis

Last reported at 2016-May-24 16:12 UTC. Time now 2016-May-25 07:18 UTC.
Position N 57°39' E 006°32'.

Length 40 m; draft 6.4 m.

Type: Fishing. MMSI: 219013001.

Date/timePositionNaut miles runAvg speedWind from/ knotsBaromVisibWave heightAir tempDewpointWater temp
2016-May-24 16:12N 57°39' E 006°32'711.1
2016-May-24 15:31N 57°42' E 006°19'1111.0
2016-May-24 14:31N 57°46' E 006°00'  
2016-May-18 13:16N 59°05' E 004°40'710.1
2016-May-18 12:32N 58°60' E 004°49'9 9.3
2016-May-18 11:33N 58°52' E 004°59'10 9.5
2016-May-18 10:33N 58°44' E 005°10'10 9.9
2016-May-18 09:33N 58°37' E 005°21'1210.3
2016-May-18 08:22N 58°27' E 005°36'810.2
2016-May-18 07:33N 58°21' E 005°46'1110.4
2016-May-18 06:30N 58°12' E 006°00'1010.1
2016-May-18 05:33N 58°06' E 006°13'9 9.6
2016-May-18 04:33N 57°59' E 006°27'10 9.7
2016-May-18 03:33N 57°53' E 006°41'13 0.6
2016-May-17 07:21N 57°47' E 007°01'8 9.8
2016-May-17 06:33N 57°52' E 006°50'1010.2
2016-May-17 05:32N 57°58' E 006°35'1110.7
2016-May-17 04:33N 58°05' E 006°19'2210.5
2016-May-17 02:27N 58°18' E 005°46'1010.2
2016-May-17 01:27N 58°26' E 005°34'910.1
2016-May-17 00:33N 58°33' E 005°23'1010.2
2016-May-16 23:33N 58°41' E 005°10'1010.5
2016-May-16 22:33N 58°49' E 004°58'1110.7
2016-May-16 21:33N 58°58' E 004°46'  
Track history (hours):
 
Tides and Currents Weather Stations Pressure Air Temp Water Temp Dewpoint Dewpoint Depression Visibility Wind Speed Wind Dir Waves Ship Positions

Hg 306 Tobis

Last reported at 2016-May-24 16:12 UTC. Time now 2016-May-25 07:18 UTC.
Position N 57°39' E 006°32'.

Length 40 m; draft 6.4 m.

Type: Fishing. MMSI: 219013001.

Date/timePositionNaut miles runAvg speedWind from/ knotsBaromVisibWave heightAir tempDewpointWater temp
2016-May-24 16:12N 57°39' E 006°32'711.1
2016-May-24 15:31N 57°42' E 006°19'1111.0
2016-May-24 14:31N 57°46' E 006°00'  
2016-May-18 13:16N 59°05' E 004°40'710.1
2016-May-18 12:32N 58°60' E 004°49'9 9.3
2016-May-18 11:33N 58°52' E 004°59'10 9.5
2016-May-18 10:33N 58°44' E 005°10'10 9.9
2016-May-18 09:33N 58°37' E 005°21'1210.3
2016-May-18 08:22N 58°27' E 005°36'810.2
2016-May-18 07:33N 58°21' E 005°46'1110.4
2016-May-18 06:30N 58°12' E 006°00'1010.1
2016-May-18 05:33N 58°06' E 006°13'9 9.6
2016-May-18 04:33N 57°59' E 006°27'10 9.7
2016-May-18 03:33N 57°53' E 006°41'13 0.6
2016-May-17 07:21N 57°47' E 007°01'8 9.8
2016-May-17 06:33N 57°52' E 006°50'1010.2
2016-May-17 05:32N 57°58' E 006°35'1110.7
2016-May-17 04:33N 58°05' E 006°19'2210.5
2016-May-17 02:27N 58°18' E 005°46'1010.2
2016-May-17 01:27N 58°26' E 005°34'910.1
2016-May-17 00:33N 58°33' E 005°23'1010.2
2016-May-16 23:33N 58°41' E 005°10'1010.5
2016-May-16 22:33N 58°49' E 004°58'1110.7
2016-May-16 21:33N 58°58' E 004°46'  

Dump ship's entire track history